Time;durP1;ratioP1;P1;durP2;ratioP2;P2;SDS_P1;SDS_P2;PMS_P1;PMS_P2;Temp;Humidity;BMP_temperature;BMP_pressure;BME280_temperature;BME280_humidity;BME280_pressure;Samples;Min_cycle;Max_cycle;Signal;HPM_P1;HPM_P2
2021/06/19 07:09:10;;;;;;;6.15;3.72;;;38.20;58.30;;;;;;5324318;23;20234;-73
2021/06/19 07:11:35;;;;;;;7.88;3.42;;;38.50;58.30;;;;;;4949046;28;20187;-74
2021/06/19 07:14:01;;;;;;;4.00;3.10;;;38.50;53.10;;;;;;4953220;28;20220;-74
2021/06/19 07:16:26;;;;;;;3.90;3.20;;;38.80;58.60;;;;;;4946115;29;20234;-74
2021/06/19 07:18:52;;;;;;;6.32;2.97;;;38.70;57.80;;;;;;4934182;29;20187;-74
2021/06/19 07:21:17;;;;;;;4.15;3.53;;;38.60;56.60;;;;;;4934848;29;20234;-74
2021/06/19 07:23:43;;;;;;;7.72;3.88;;;38.90;57.90;;;;;;4963506;23;20230;-76
2021/06/19 07:26:09;;;;;;;8.82;3.38;;;38.40;56.50;;;;;;4958432;28;20187;-76
2021/06/19 07:28:34;;;;;;;6.47;3.85;;;38.20;59.30;;;;;;4972187;28;20205;-76
2021/06/19 07:31:00;;;;;;;6.15;3.45;;;38.40;57.50;;;;;;4973101;28;20174;-76
2021/06/19 07:33:25;;;;;;;6.40;3.63;;;38.50;57.60;;;;;;4972972;28;20607;-76
2021/06/19 07:35:54;;;;;;;3.40;3.17;;;38.30;58.50;;;;;;4973071;28;20177;-76
2021/06/19 07:38:19;;;;;;;4.20;3.80;;;38.10;56.90;;;;;;4971919;28;20193;-75
2021/06/19 07:40:45;;;;;;;4.25;3.60;;;38.10;58.90;;;;;;4972915;28;20210;-75
2021/06/19 07:43:10;;;;;;;5.10;3.70;;;37.90;59.00;;;;;;4972851;28;20208;-75
2021/06/19 07:45:36;;;;;;;5.13;4.00;;;37.90;60.30;;;;;;4973992;28;20182;-77
2021/06/19 07:48:01;;;;;;;4.78;3.50;;;38.30;61.90;;;;;;4975985;28;20224;-67
2021/06/19 07:50:27;;;;;;;4.75;3.40;;;37.70;61.00;;;;;;4976626;28;20563;-67
2021/06/19 07:52:52;;;;;;;9.75;3.85;;;37.80;60.10;;;;;;4976168;28;20562;-67
2021/06/19 07:55:19;;;;;;;5.55;3.30;;;38.30;60.00;;;;;;4976175;28;20208;-69
2021/06/19 08:00:20;;;;;;;8.48;3.40;;;38.50;59.90;;;;;;5394107;23;20245;-73
2021/06/19 08:02:48;;;;;;;11.20;3.50;;;38.20;55.50;;;;;;4979405;23;20176;-73
2021/06/19 08:05:13;;;;;;;4.30;3.78;;;38.10;55.60;;;;;;4967211;28;20226;-71
2021/06/19 08:07:40;;;;;;;3.95;3.40;;;37.90;60.70;;;;;;4967781;28;20186;-71
2021/06/19 08:10:07;;;;;;;3.40;3.17;;;38.00;58.60;;;;;;4958607;28;20289;-71
2021/06/19 08:12:32;;;;;;;4.00;3.47;;;38.00;58.40;;;;;;4972893;28;20181;-71
2021/06/19 08:14:58;;;;;;;7.18;3.50;;;38.10;60.70;;;;;;4956800;29;20233;-71
2021/06/19 08:17:25;;;;;;;15.52;3.33;;;38.30;59.40;;;;;;4957444;29;20175;-71
2021/06/19 08:19:51;;;;;;;4.70;3.53;;;38.10;60.60;;;;;;4956914;29;20179;-80
2021/06/19 08:22:17;;;;;;;4.45;3.65;;;38.50;58.40;;;;;;4957062;28;20186;-85
2021/06/19 08:24:43;;;;;;;6.88;3.80;;;38.90;60.40;;;;;;4956980;28;20190;-81
2021/06/19 08:27:09;;;;;;;3.58;3.28;;;39.10;57.60;;;;;;4957020;28;20206;-82
2021/06/19 08:29:35;;;;;;;7.75;4.03;;;38.40;56.90;;;;;;4956507;29;20308;-83
2021/06/19 08:32:00;;;;;;;3.40;3.10;;;38.40;58.60;;;;;;4958540;28;20182;-78
2021/06/19 08:34:26;;;;;;;5.20;3.53;;;38.70;58.20;;;;;;4956934;28;20198;-82
2021/06/19 08:36:52;;;;;;;3.53;3.22;;;;;;;;;;4956910;29;20178;-81
2021/06/19 08:39:17;;;;;;;3.80;3.50;;;38.60;57.80;;;;;;4956312;29;20623;-82
2021/06/19 08:41:48;;;;;;;3.85;3.45;;;39.20;58.90;;;;;;4957606;29;20590;-80
2021/06/19 08:44:21;;;;;;;5.43;4.18;;;39.10;56.00;;;;;;4958660;28;20200;-79
2021/06/19 08:46:47;;;;;;;5.47;3.60;;;38.80;58.20;;;;;;4959567;28;20186;-79
2021/06/19 08:49:13;;;;;;;4.25;3.75;;;38.90;58.90;;;;;;4960443;28;20690;-80
2021/06/19 08:51:38;;;;;;;5.20;3.50;;;38.60;56.80;;;;;;4960629;29;20237;-78
2021/06/19 08:54:04;;;;;;;4.93;4.00;;;37.60;57.80;;;;;;4957860;28;20304;-80
2021/06/19 08:56:30;;;;;;;6.10;4.53;;;36.40;59.80;;;;;;4958575;28;20197;-80
2021/06/19 08:58:55;;;;;;;5.93;3.80;;;36.60;61.00;;;;;;4945100;29;20174;-80
2021/06/19 09:01:20;;;;;;;7.88;3.75;;;36.50;60.40;;;;;;4949509;29;20245;-81
2021/06/19 09:03:46;;;;;;;3.40;3.20;;;36.60;59.50;;;;;;4958148;28;20233;-81
2021/06/19 09:06:26;;;;;;;6.95;3.80;;;36.60;57.70;;;;;;4957488;29;20194;-79
2021/06/19 09:09:00;;;;;;;5.80;3.90;;;36.50;57.40;;;;;;4954326;29;20198;-81
2021/06/19 09:11:30;;;;;;;7.57;3.03;;;36.70;58.90;;;;;;4956675;28;20182;-81
2021/06/19 09:14:01;;;;;;;7.45;4.00;;;36.70;57.70;;;;;;4956773;28;20201;-80
2021/06/19 09:16:27;;;;;;;4.45;3.60;;;37.00;57.60;;;;;;4957452;28;20245;-80
2021/06/19 09:18:52;;;;;;;4.63;3.85;;;37.20;60.20;;;;;;4961436;28;20647;-80
2021/06/19 09:21:30;;;;;;;8.57;3.72;;;37.40;58.00;;;;;;4958311;29;20190;-79
2021/06/19 09:23:56;;;;;;;8.02;3.67;;;37.30;57.30;;;;;;4956798;28;20202;-79
2021/06/19 09:26:25;;;;;;;10.77;4.35;;;37.50;62.50;;;;;;4956550;28;20194;-79
2021/06/19 09:28:56;;;;;;;5.82;3.53;;;37.90;58.00;;;;;;4960274;28;20572;-80
2021/06/19 09:31:47;;;;;;;8.20;3.53;;;37.60;55.90;;;;;;4955136;28;20186;-80
2021/06/19 09:34:25;;;;;;;5.20;3.65;;;37.10;60.20;;;;;;4947269;28;20195;-79
2021/06/19 09:37:02;;;;;;;3.55;3.17;;;36.80;58.20;;;;;;4970552;28;20547;-79
2021/06/19 09:39:30;;;;;;;4.93;3.90;;;36.80;56.60;;;;;;4953797;29;20658;-80
2021/06/19 09:41:59;;;;;;;4.30;3.65;;;37.00;63.30;;;;;;4955974;28;20654;-79
2021/06/19 09:44:34;;;;;;;4.93;3.40;;;37.20;61.50;;;;;;4953143;28;20218;-79
2021/06/19 09:47:00;;;;;;;6.25;3.50;;;36.80;58.00;;;;;;4937716;29;20182;-80
2021/06/19 09:49:31;;;;;;;11.50;3.50;;;36.50;61.80;;;;;;4935618;29;20214;-82
2021/06/19 09:51:57;;;;;;;7.50;3.63;;;36.10;61.70;;;;;;4948423;29;20194;-81
2021/06/19 09:54:22;;;;;;;3.78;3.30;;;36.20;60.30;;;;;;4955669;28;20198;-81
2021/06/19 09:56:57;;;;;;;3.65;3.33;;;36.10;63.30;;;;;;4954344;29;20175;-81
2021/06/19 09:59:30;;;;;;;9.80;3.60;;;36.50;57.80;;;;;;4954852;28;20194;-81
2021/06/19 10:02:17;;;;;;;3.97;3.45;;;36.40;61.30;;;;;;4955679;28;20174;-81
2021/06/19 10:04:50;;;;;;;6.30;3.45;;;36.30;59.70;;;;;;4945958;28;20309;-83
2021/06/19 10:07:17;;;;;;;3.55;3.25;;;36.60;66.70;;;;;;4936056;29;20175;-83
2021/06/19 10:09:45;;;;;;;4.22;3.72;;;36.80;62.90;;;;;;4952196;29;20678;-80
2021/06/19 10:12:11;;;;;;;6.68;3.53;;;37.00;62.00;;;;;;4954707;28;20179;-80
2021/06/19 10:14:37;;;;;;;4.07;3.47;;;37.20;62.00;;;;;;4941083;28;20363;-80
2021/06/19 10:17:03;;;;;;;5.00;3.72;;;36.70;63.40;;;;;;4953635;29;20232;-81
2021/06/19 10:19:28;;;;;;;7.28;4.07;;;36.10;62.40;;;;;;4954375;28;20190;-80
2021/06/19 10:21:56;;;;;;;7.47;3.63;;;36.00;61.40;;;;;;4954665;29;20182;-81
2021/06/19 10:24:24;;;;;;;3.95;3.10;;;36.20;63.40;;;;;;4944306;28;20214;-82
2021/06/19 10:26:52;;;;;;;4.88;3.53;;;36.30;60.80;;;;;;4955333;28;20185;-82
2021/06/19 10:29:23;;;;;;;4.18;3.88;;;36.20;65.80;;;;;;4954522;29;20198;-81
2021/06/19 10:31:50;;;;;;;4.53;3.88;;;36.20;61.90;;;;;;4956611;29;20490;-80
2021/06/19 10:34:22;;;;;;;3.80;3.40;;;36.00;60.30;;;;;;4955038;28;20210;-82
2021/06/19 10:36:48;;;;;;;7.57;3.33;;;35.60;61.50;;;;;;4957195;28;20230;-80
2021/06/19 10:39:33;;;;;;;5.38;3.92;;;35.70;64.50;;;;;;4954626;29;20314;-80
2021/06/19 10:41:59;;;;;;;6.22;3.92;;;35.50;58.40;;;;;;4953817;29;20186;-79
2021/06/19 10:44:51;;;;;;;5.20;3.85;;;35.30;62.40;;;;;;4950484;28;20663;-79
2021/06/19 10:47:18;;;;;;;5.78;4.15;;;35.60;60.70;;;;;;4945763;29;20183;-80
2021/06/19 10:49:44;;;;;;;5.20;3.83;;;35.80;64.10;;;;;;4945593;29;20206;-83
2021/06/19 10:52:26;;;;;;;6.80;3.58;;;35.70;59.10;;;;;;4956155;28;20232;-80
2021/06/19 10:55:15;;;;;;;4.28;3.78;;;35.60;66.30;;;;;;4956594;28;20686;-83
2021/06/19 10:57:49;;;;;;;6.53;4.57;;;35.60;62.50;;;;;;4954589;29;20193;-82
2021/06/19 11:00:34;;;;;;;5.97;3.60;;;35.90;56.70;;;;;;4966503;28;20178;-81
2021/06/19 11:03:02;;;;;;;6.47;4.35;;;35.90;65.60;;;;;;4972057;28;20215;-82
2021/06/19 11:05:49;;;;;;;5.63;4.28;;;36.20;62.90;;;;;;4962781;28;20178;-82
2021/06/19 11:08:16;;;;;;;8.48;4.07;;;36.00;61.70;;;;;;4954213;28;20631;-82
2021/06/19 11:10:44;;;;;;;5.05;3.95;;;36.00;62.00;;;;;;4953610;28;20205;-81
2021/06/19 11:13:28;;;;;;;8.13;3.45;;;35.90;63.40;;;;;;4954014;28;20225;-82
2021/06/19 11:15:55;;;;;;;4.35;4.05;;;36.30;62.70;;;;;;4954108;29;20166;-81
2021/06/19 11:18:49;;;;;;;10.38;3.92;;;36.00;66.10;;;;;;4954369;28;20170;-80
2021/06/19 11:21:20;;;;;;;8.73;3.30;;;36.10;60.00;;;;;;4956662;28;20645;-81
2021/06/19 11:24:00;;;;;;;7.65;3.65;;;35.70;63.00;;;;;;4958285;28;20213;-80
2021/06/19 11:26:59;;;;;;;5.80;4.07;;;35.10;61.00;;;;;;4961226;29;20192;-81
2021/06/19 11:29:40;;;;;;;4.75;3.95;;;34.70;63.20;;;;;;4961937;28;20226;-82
2021/06/19 11:32:25;;;;;;;9.63;4.53;;;34.00;62.10;;;;;;4954685;29;20261;-82
2021/06/19 11:34:55;;;;;;;5.73;4.47;;;33.20;67.90;;;;;;4960952;28;20229;-81
2021/06/19 11:37:21;;;;;;;5.10;4.33;;;32.30;70.60;;;;;;4959655;28;20307;-82
2021/06/19 11:39:47;;;;;;;8.30;4.90;;;31.80;73.10;;;;;;4960156;29;20437;-81
2021/06/19 11:42:13;;;;;;;9.03;4.77;;;31.50;73.30;;;;;;4959406;28;20476;-82
2021/06/19 11:44:41;;;;;;;5.97;5.00;;;31.80;72.00;;;;;;4960533;28;20225;-80
2021/06/19 11:47:08;;;;;;;8.13;4.73;;;31.90;71.00;;;;;;4959448;28;20214;-80
2021/06/19 11:49:36;;;;;;;9.80;5.03;;;32.20;72.40;;;;;;4960489;28;20461;-80
2021/06/19 11:52:03;;;;;;;7.93;4.40;;;32.40;71.20;;;;;;4954511;28;20516;-80
2021/06/19 11:54:29;;;;;;;8.80;5.07;;;32.60;70.50;;;;;;4962449;28;20448;-80
2021/06/19 11:56:55;;;;;;;12.33;5.60;;;32.60;72.30;;;;;;4963048;29;21183;-80
2021/06/19 11:59:22;;;;;;;11.10;5.30;;;33.00;73.60;;;;;;4961443;29;20257;-80
2021/06/19 12:01:49;;;;;;;5.60;5.10;;;33.20;69.60;;;;;;4953406;28;20937;-81
2021/06/19 12:04:21;;;;;;;5.87;5.07;;;33.10;70.30;;;;;;4962814;28;20469;-81
2021/06/19 12:06:55;;;;;;;9.53;5.10;;;33.00;68.70;;;;;;4962129;29;20430;-80
2021/06/19 12:09:31;;;;;;;6.70;5.20;;;33.10;68.40;;;;;;4955254;29;20974;-81
2021/06/19 12:12:11;;;;;;;17.73;5.50;;;33.20;72.40;;;;;;4955066;29;20429;-82
2021/06/19 12:14:39;;;;;;;8.37;4.83;;;33.60;67.10;;;;;;4957876;28;21010;-80
2021/06/19 12:17:11;;;;;;;13.80;4.63;;;33.90;70.20;;;;;;4961755;28;20890;-81
2021/06/19 12:19:38;;;;;;;5.43;4.90;;;34.00;69.60;;;;;;4962223;28;20553;-79
2021/06/19 12:22:09;;;;;;;7.50;5.50;;;34.30;68.50;;;;;;4962835;28;20414;-80
2021/06/19 12:24:37;;;;;;;6.47;4.67;;;33.80;69.30;;;;;;4965711;28;20532;-80
2021/06/19 12:27:18;;;;;;;8.83;5.07;;;33.70;63.80;;;;;;4960520;28;20422;-81
2021/06/19 12:29:55;;;;;;;4.90;4.50;;;33.70;70.10;;;;;;4955563;29;20489;-81
2021/06/19 12:32:23;;;;;;;6.17;4.23;;;33.90;72.00;;;;;;4958672;28;20513;-81
2021/06/19 12:34:50;;;;;;;5.77;4.20;;;34.40;66.70;;;;;;4959574;28;20430;-81
2021/06/19 12:37:20;;;;;;;5.70;4.33;;;34.40;64.20;;;;;;4958173;28;20406;-81
2021/06/19 12:39:47;;;;;;;11.47;5.37;;;34.30;69.50;;;;;;4961340;28;20402;-80
2021/06/19 12:42:29;;;;;;;7.70;5.43;;;34.40;73.00;;;;;;4959566;29;20418;-79
2021/06/19 12:45:09;;;;;;;11.63;5.97;;;34.40;70.60;;;;;;4963340;29;20414;-79
2021/06/19 12:47:42;;;;;;;7.00;5.60;;;33.90;70.80;;;;;;4963782;28;20662;-80
2021/06/19 12:50:12;;;;;;;7.93;5.93;;;33.60;72.80;;;;;;4960317;29;20462;-80
2021/06/19 12:52:59;;;;;;;21.43;6.17;;;33.20;71.40;;;;;;4962316;28;20428;-80
2021/06/19 12:55:36;;;;;;;12.50;7.13;;;33.20;74.10;;;;;;4946002;29;20933;-80
2021/06/19 12:58:16;;;;;;;7.70;6.00;;;33.30;74.70;;;;;;4962182;29;20413;-80
2021/06/19 13:00:55;;;;;;;9.47;6.10;;;33.30;74.20;;;;;;4962384;29;20897;-81
2021/06/19 13:03:23;;;;;;;12.57;6.60;;;33.40;75.80;;;;;;4962069;28;20548;-80
2021/06/19 13:05:53;;;;;;;7.30;6.20;;;33.50;78.40;;;;;;4961337;29;20426;-80
2021/06/19 13:08:21;;;;;;;9.60;6.33;;;32.90;76.70;;;;;;4964044;29;20513;-83
2021/06/19 13:10:47;;;;;;;7.90;6.33;;;32.40;74.30;;;;;;4966421;28;20450;-79
2021/06/19 13:13:12;;;;;;;10.80;6.60;;;32.40;76.90;;;;;;4964567;28;20437;-80
2021/06/19 13:15:55;;;;;;;13.70;5.90;;;32.70;77.80;;;;;;4967063;29;20474;-80
2021/06/19 13:18:21;;;;;;;8.43;6.57;;;33.10;74.50;;;;;;4967081;29;20662;-80
2021/06/19 13:20:56;;;;;;;6.87;6.23;;;33.30;72.70;;;;;;4968572;28;20446;-80
2021/06/19 13:23:25;;;;;;;11.37;5.00;;;33.40;75.90;;;;;;4966326;28;20209;-81
2021/06/19 13:25:54;;;;;;;7.43;5.90;;;;;;;;;;4956731;29;20449;-82
2021/06/19 13:28:35;;;;;;;9.80;5.73;;;34.20;73.90;;;;;;4954985;29;20437;-81
2021/06/19 13:31:23;;;;;;;7.23;6.27;;;34.20;72.50;;;;;;4954948;29;20441;-81
2021/06/19 13:34:01;;;;;;;8.77;5.57;;;33.80;68.60;;;;;;4954437;28;20442;-82
2021/06/19 13:36:40;;;;;;;9.60;5.63;;;33.50;68.60;;;;;;4956149;28;20442;-82
2021/06/19 13:39:08;;;;;;;6.73;5.47;;;33.60;73.40;;;;;;4957409;29;20412;-80
2021/06/19 13:41:51;;;;;;;6.23;5.60;;;33.50;73.10;;;;;;4966531;28;20414;-81
2021/06/19 13:44:23;;;;;;;11.17;5.80;;;33.10;75.00;;;;;;4957342;28;20425;-81
2021/06/19 13:46:50;;;;;;;6.50;5.10;;;32.80;73.30;;;;;;4957011;28;20432;-81
2021/06/19 13:49:17;;;;;;;10.47;5.93;;;32.80;77.10;;;;;;4958424;28;20821;-81
2021/06/19 13:51:48;;;;;;;8.10;6.20;;;32.70;76.70;;;;;;4959803;28;20813;-82
2021/06/19 13:54:13;;;;;;;8.50;5.60;;;32.50;71.80;;;;;;4959787;28;20441;-82
2021/06/19 13:56:39;;;;;;;7.03;5.70;;;32.60;75.50;;;;;;4957712;29;20414;-82
2021/06/19 13:59:05;;;;;;;11.83;6.60;;;32.60;73.50;;;;;;4958167;29;20202;-82
2021/06/19 14:01:31;;;;;;;6.23;5.73;;;32.90;78.40;;;;;;4959099;29;20429;-82
2021/06/19 14:03:56;;;;;;;9.40;5.93;;;33.50;74.50;;;;;;4957465;28;20221;-82
2021/06/19 14:06:22;;;;;;;9.43;6.00;;;34.00;71.10;;;;;;4950120;29;20190;-81
2021/06/19 14:08:53;;;;;;;8.67;6.00;;;33.90;69.20;;;;;;4938203;29;20655;-83
2021/06/19 14:11:23;;;;;;;12.43;5.77;;;34.00;70.70;;;;;;4955982;29;20174;-83
2021/06/19 14:13:49;;;;;;;5.63;5.17;;;34.50;69.60;;;;;;4944325;29;20438;-83
2021/06/19 14:16:15;;;;;;;7.23;5.23;;;34.50;69.70;;;;;;4958741;28;20966;-82
2021/06/19 14:18:41;;;;;;;6.20;5.37;;;34.10;68.90;;;;;;4958912;29;20460;-83
2021/06/19 14:21:08;;;;;;;6.77;4.93;;;34.30;69.10;;;;;;4962776;28;20209;-82
2021/06/19 14:23:36;;;;;;;7.63;5.30;;;34.20;68.80;;;;;;4963514;28;20791;-82
2021/06/19 14:26:03;;;;;;;12.20;5.20;;;33.80;66.70;;;;;;4962258;28;20458;-82
2021/06/19 14:28:29;;;;;;;15.47;5.27;;;34.20;66.60;;;;;;4958965;28;20430;-82
2021/06/19 14:30:56;;;;;;;7.57;5.47;;;34.20;68.80;;;;;;4958260;29;20620;-82
2021/06/19 14:33:21;;;;;;;13.70;5.80;;;34.30;66.00;;;;;;4956879;28;20222;-81
2021/06/19 14:35:47;;;;;;;10.35;5.18;;;34.70;67.80;;;;;;4957455;29;20185;-82
2021/06/19 14:38:14;;;;;;;9.30;5.13;;;35.10;65.80;;;;;;4958353;28;20179;-82
2021/06/19 14:40:43;;;;;;;8.88;5.20;;;35.50;65.50;;;;;;4958695;28;20262;-82
2021/06/19 14:43:10;;;;;;;12.85;5.85;;;35.40;64.80;;;;;;4959336;28;20667;-82
2021/06/19 14:45:36;;;;;;;11.00;5.68;;;35.80;65.90;;;;;;4956244;29;20178;-82
2021/06/19 14:48:03;;;;;;;9.07;5.10;;;35.90;62.30;;;;;;4958918;28;20208;-82
2021/06/19 14:50:28;;;;;;;10.07;5.53;;;35.60;61.50;;;;;;4958955;28;20613;-83
2021/06/19 14:52:54;;;;;;;10.23;5.93;;;35.80;60.90;;;;;;4960285;28;20202;-82
2021/06/19 14:55:20;;;;;;;9.82;5.22;;;36.00;64.00;;;;;;4959254;28;20170;-83
2021/06/19 14:57:48;;;;;;;5.95;4.88;;;36.20;62.40;;;;;;4963975;29;20171;-83
2021/06/19 15:00:14;;;;;;;10.73;5.15;;;36.00;67.60;;;;;;4972816;28;20182;-83
2021/06/19 15:02:40;;;;;;;10.43;5.72;;;35.90;62.70;;;;;;4974843;28;20210;-83
2021/06/19 15:05:07;;;;;;;8.85;5.00;;;35.50;64.20;;;;;;4977840;23;20234;-84
2021/06/19 15:07:32;;;;;;;7.20;5.22;;;35.20;66.80;;;;;;4953125;29;20179;-85
2021/06/19 15:09:58;;;;;;;8.13;5.30;;;34.80;64.20;;;;;;4952355;29;20228;-85
2021/06/19 15:12:24;;;;;;;5.30;4.90;;;;;;;;;;4952517;29;20201;-85
2021/06/19 15:14:50;;;;;;;9.45;5.47;;;;;;;;;;4939865;29;20195;-84
2021/06/19 15:17:16;;;;;;;6.75;5.25;;;;;;;;;;4933483;29;20179;-85
2021/06/19 15:19:41;;;;;;;7.80;4.88;;;;;;;;;;4932745;29;20182;-84
2021/06/19 15:22:08;;;;;;;9.65;6.47;;;;;;;;;;4933094;29;20190;-84
2021/06/19 15:24:39;;;;;;;15.60;5.47;;;33.10;79.30;;;;;;4933392;29;20194;-84
2021/06/19 15:27:08;;;;;;;6.35;5.38;;;32.90;80.30;;;;;;4934786;29;20232;-83
2021/06/19 15:29:34;;;;;;;9.63;5.82;;;32.70;79.20;;;;;;4934148;29;20198;-82
2021/06/19 15:31:59;;;;;;;10.50;5.45;;;32.60;81.20;;;;;;4936585;29;20175;-79
2021/06/19 15:34:25;;;;;;;6.95;5.68;;;32.50;81.90;;;;;;4935705;29;20602;-82
2021/06/19 15:36:51;;;;;;;10.87;5.83;;;32.40;79.90;;;;;;4933902;29;20194;-82
2021/06/19 15:39:16;;;;;;;24.27;6.90;;;32.20;81.80;;;;;;4932893;29;20639;-82
2021/06/19 15:41:42;;;;;;;8.27;5.60;;;;;;;;;;4934523;29;20195;-80
2021/06/19 15:44:08;;;;;;;11.60;5.53;;;32.00;85.50;;;;;;4933933;29;20302;-83
2021/06/19 15:46:34;;;;;;;8.33;5.67;;;31.80;84.20;;;;;;4934215;29;20454;-82
2021/06/19 15:49:02;;;;;;;9.90;5.60;;;31.50;78.60;;;;;;4934172;29;20222;-82
2021/06/19 15:51:35;;;;;;;8.90;6.20;;;31.20;76.40;;;;;;4934685;29;20407;-82
2021/06/19 15:54:03;;;;;;;10.87;6.83;;;30.90;76.90;;;;;;4934742;29;20446;-78
2021/06/19 15:56:29;;;;;;;17.23;14.83;;;;;;;;;;4938237;29;20418;-82
2021/06/19 15:58:55;;;;;;;384.77;252.10;;;30.50;81.50;;;;;;4939915;29;20430;-83
2021/06/19 16:01:21;;;;;;;29.03;22.00;;;30.40;82.60;;;;;;4940338;29;20225;-80
2021/06/19 16:03:46;;;;;;;9.73;8.27;;;30.30;82.20;;;;;;4934052;29;20211;-83
2021/06/19 16:06:12;;;;;;;8.53;7.17;;;30.20;82.50;;;;;;4932472;29;20655;-84
2021/06/19 16:08:37;;;;;;;11.60;7.10;;;30.10;83.50;;;;;;4917823;29;20176;-84
2021/06/19 16:11:03;;;;;;;17.17;8.67;;;29.90;85.90;;;;;;4917266;29;20270;-84
2021/06/19 16:13:29;;;;;;;10.57;7.90;;;;;;;;;;4919987;29;20208;-83
2021/06/19 16:15:55;;;;;;;9.10;7.17;;;;;;;;;;4919865;29;20179;-83
2021/06/19 16:18:21;;;;;;;7.80;6.37;;;;;;;;;;4918626;29;20206;-83
2021/06/19 16:20:47;;;;;;;8.40;6.60;;;;;;;;;;4937178;29;20179;-82
2021/06/19 16:23:13;;;;;;;17.23;6.80;;;;;;;;;;4937908;29;20421;-83
2021/06/19 16:25:39;;;;;;;7.57;6.13;;;;;;;;;;4936781;29;20206;-83
2021/06/19 16:28:05;;;;;;;9.37;6.57;;;;;;;;;;4936552;29;20189;-83
2021/06/19 16:30:31;;;;;;;11.97;6.90;;;;;;;;;;4935824;29;20262;-83
2021/06/19 16:32:56;;;;;;;8.80;6.30;;;;;;;;;;4937093;29;20222;-85
2021/06/19 16:35:22;;;;;;;11.33;7.00;;;28.70;84.40;;;;;;4936413;29;20199;-83
2021/06/19 16:37:48;;;;;;;8.03;6.50;;;;;;;;;;4937868;29;20215;-81
2021/06/19 16:40:15;;;;;;;9.77;7.30;;;28.40;84.00;;;;;;4937261;29;20229;-82
2021/06/19 16:42:40;;;;;;;10.90;7.03;;;28.20;84.70;;;;;;4937668;29;20183;-82
2021/06/19 16:45:06;;;;;;;13.57;7.57;;;28.00;86.70;;;;;;4936063;29;20580;-82
2021/06/19 16:47:32;;;;;;;13.00;9.70;;;;;;;;;;4935786;29;20660;-82
2021/06/19 16:49:58;;;;;;;14.60;8.10;;;;;;;;;;4935716;29;20469;-80
2021/06/19 16:52:24;;;;;;;12.00;7.40;;;28.00;86.50;;;;;;4942041;29;20710;-81
2021/06/19 16:54:51;;;;;;;9.87;7.57;;;28.00;86.90;;;;;;4942299;29;20195;-81
2021/06/19 16:57:17;;;;;;;16.40;9.77;;;28.00;86.80;;;;;;4940969;29;20427;-82
2021/06/19 16:59:42;;;;;;;12.70;8.57;;;27.80;87.50;;;;;;4938094;29;20475;-85
2021/06/19 17:02:08;;;;;;;8.87;6.87;;;;;;;;;;4936089;29;20179;-84
2021/06/19 17:04:34;;;;;;;11.00;7.00;;;;;;;;;;4916837;29;20211;-85
2021/06/19 17:07:01;;;;;;;13.53;6.87;;;;;;;;;;4930508;29;20187;-85
2021/06/19 17:09:27;;;;;;;8.53;6.43;;;;;;;;;;4935156;29;20262;-85
2021/06/19 17:11:53;;;;;;;9.53;7.10;;;;;;;;;;4937092;29;20407;-85
2021/06/19 17:14:19;;;;;;;9.30;7.13;;;;;;;;;;4935383;29;20274;-85
2021/06/19 17:16:45;;;;;;;11.57;7.57;;;;;;;;;;4935547;29;20563;-82
2021/06/19 17:19:11;;;;;;;8.50;7.70;;;;;;;;;;4936316;29;20176;-84
2021/06/19 17:21:36;;;;;;;8.77;7.37;;;;;;;;;;4938540;29;20570;-85
2021/06/19 17:24:02;;;;;;;11.77;6.77;;;;;;;;;;4935399;29;20697;-84
2021/06/19 17:26:28;;;;;;;10.17;6.63;;;;;;;;;;4935890;29;20186;-84
2021/06/19 17:28:54;;;;;;;13.93;6.87;;;27.40;90.00;;;;;;4935874;29;20430;-83
2021/06/19 17:31:20;;;;;;;10.00;6.73;;;27.40;89.70;;;;;;4936732;29;20676;-85
2021/06/19 17:33:45;;;;;;;10.03;7.30;;;27.50;88.20;;;;;;4936788;29;20191;-84
2021/06/19 17:36:11;;;;;;;8.33;6.90;;;27.50;87.70;;;;;;4937290;29;20179;-82
2021/06/19 17:38:37;;;;;;;8.33;6.70;;;;;;;;;;4938124;29;20187;-84
2021/06/19 17:41:03;;;;;;;6.87;6.17;;;;;;;;;;4936408;29;20843;-84
2021/06/19 17:43:29;;;;;;;8.30;6.83;;;;;;;;;;4936118;29;20506;-84
2021/06/19 17:45:55;;;;;;;10.10;6.70;;;;;;;;;;4938065;29;20183;-84
2021/06/19 17:48:21;;;;;;;8.57;6.50;;;;;;;;;;4949022;29;20927;-84
2021/06/19 17:50:47;;;;;;;16.70;6.83;;;27.80;88.20;;;;;;4947698;29;20203;-84
2021/06/19 17:53:18;;;;;;;6.70;6.10;;;27.70;90.70;;;;;;4935060;29;20217;-84
2021/06/19 17:55:44;;;;;;;17.33;7.37;;;;;;;;;;4936175;29;20175;-82
2021/06/19 17:58:10;;;;;;;11.20;5.67;;;;;;;;;;4937161;29;20419;-84
2021/06/19 18:00:36;;;;;;;12.70;7.13;;;27.20;96.30;;;;;;4935894;29;20270;-84
2021/06/19 18:03:02;;;;;;;7.77;7.07;;;27.10;96.30;;;;;;4936978;29;20179;-85
2021/06/19 18:05:28;;;;;;;8.30;7.50;;;;;;;;;;4935077;29;20273;-84
2021/06/19 18:07:54;;;;;;;7.73;7.00;;;;;;;;;;4935217;29;20589;-84
2021/06/19 18:10:20;;;;;;;7.70;7.10;;;26.90;93.60;;;;;;4936532;29;20226;-85
2021/06/19 18:12:46;;;;;;;8.60;7.33;;;;;;;;;;4938059;29;20474;-80
2021/06/19 18:15:12;;;;;;;10.63;7.60;;;26.80;94.80;;;;;;4935787;29;20286;-83
2021/06/19 18:17:38;;;;;;;13.07;7.80;;;26.70;95.80;;;;;;4936991;29;20215;-82
2021/06/19 18:20:05;;;;;;;12.93;7.60;;;26.50;96.30;;;;;;4941101;29;20430;-83
2021/06/19 18:22:31;;;;;;;8.83;6.77;;;26.30;96.30;;;;;;4939345;29;20250;-83
2021/06/19 18:24:56;;;;;;;36.80;25.63;;;26.10;96.30;;;;;;4940587;29;20471;-83
2021/06/19 18:27:22;;;;;;;52.83;37.73;;;25.90;96.30;;;;;;4937439;29;20666;-83
2021/06/19 18:29:48;;;;;;;33.13;22.40;;;;;;;;;;4935531;29;20203;-83
2021/06/19 18:32:14;;;;;;;19.63;15.30;;;25.70;96.30;;;;;;4934981;29;20505;-83
2021/06/19 18:34:40;;;;;;;20.50;13.20;;;25.60;96.30;;;;;;4936564;29;20533;-83
2021/06/19 18:37:08;;;;;;;13.77;11.67;;;25.60;96.30;;;;;;4930084;29;20184;-83
2021/06/19 18:39:34;;;;;;;9.23;8.33;;;25.40;96.30;;;;;;4922929;29;20184;-81
2021/06/19 18:42:00;;;;;;;12.47;7.03;;;25.30;96.30;;;;;;4941144;29;20470;-81
2021/06/19 18:44:26;;;;;;;11.50;7.37;;;25.10;96.30;;;;;;4941904;29;20538;-81
2021/06/19 18:46:51;;;;;;;13.37;8.03;;;25.00;96.30;;;;;;4944915;29;20183;-81
2021/06/19 18:49:17;;;;;;;9.40;7.33;;;24.90;96.30;;;;;;4941524;29;20222;-83
2021/06/19 18:51:43;;;;;;;8.90;7.70;;;;;;;;;;4943921;29;20182;-83
2021/06/19 18:54:09;;;;;;;10.53;8.20;;;24.50;96.30;;;;;;4942656;29;20431;-82
2021/06/19 18:56:35;;;;;;;9.40;7.97;;;24.30;96.30;;;;;;4951043;29;20245;-82
2021/06/19 18:59:00;;;;;;;11.00;6.93;;;24.10;96.30;;;;;;4949125;29;20176;-82
2021/06/19 19:01:26;;;;;;;10.60;7.87;;;23.90;96.30;;;;;;4940185;29;20800;-84
2021/06/19 19:03:52;;;;;;;12.97;7.60;;;;;;;;;;4933510;29;20206;-83
2021/06/19 19:06:20;;;;;;;12.40;8.80;;;23.60;96.30;;;;;;4945957;29;20180;-83
2021/06/19 19:08:46;;;;;;;8.73;7.90;;;23.60;96.30;;;;;;4954880;28;20179;-85
2021/06/19 19:11:11;;;;;;;14.73;8.67;;;23.50;96.30;;;;;;4956747;28;20506;-83
2021/06/19 19:13:37;;;;;;;9.93;8.93;;;23.50;96.30;;;;;;4954961;29;20448;-85
2021/06/19 19:16:02;;;;;;;10.50;9.00;;;23.40;96.30;;;;;;4959474;28;20175;-84
2021/06/19 19:18:28;;;;;;;9.97;9.17;;;;;;;;;;4959538;28;20182;-85
2021/06/19 19:20:56;;;;;;;10.13;9.20;;;;;;;;;;4959438;28;20190;-84
2021/06/19 19:23:22;;;;;;;11.03;9.53;;;;;;;;;;4958382;29;20431;-84
2021/06/19 19:25:48;;;;;;;10.10;9.03;;;;;;;;;;4957187;28;20490;-85
2021/06/19 19:28:14;;;;;;;14.17;9.87;;;;;;;;;;4950676;29;20187;-84
2021/06/19 19:30:44;;;;;;;12.13;9.20;;;22.70;96.30;;;;;;4936324;29;20211;-84
2021/06/19 19:33:10;;;;;;;12.30;8.47;;;22.60;96.30;;;;;;4935646;29;20506;-84
2021/06/19 19:35:36;;;;;;;12.70;8.17;;;22.50;96.30;;;;;;4935512;29;20494;-83
2021/06/19 19:38:03;;;;;;;9.27;8.20;;;22.40;96.30;;;;;;4936988;29;20180;-83
2021/06/19 19:40:28;;;;;;;16.20;8.53;;;22.30;96.30;;;;;;4940477;29;20637;-84
2021/06/19 19:42:54;;;;;;;9.20;8.20;;;22.20;96.30;;;;;;4938687;29;20559;-84
2021/06/19 19:45:22;;;;;;;8.60;7.70;;;22.10;96.30;;;;;;4939182;29;20227;-83
2021/06/19 19:47:48;;;;;;;12.27;8.07;;;22.00;96.30;;;;;;4939442;29;20240;-84
2021/06/19 19:50:14;;;;;;;11.67;7.83;;;21.90;96.30;;;;;;4940697;29;20503;-84
2021/06/19 19:52:40;;;;;;;10.73;9.20;;;21.80;96.30;;;;;;4938765;29;20179;-84
2021/06/19 19:55:07;;;;;;;13.90;9.40;;;21.80;96.30;;;;;;4940264;29;20231;-84
2021/06/19 19:57:33;;;;;;;13.53;8.97;;;21.70;96.30;;;;;;4940015;29;20932;-83
2021/06/19 19:59:59;;;;;;;10.47;8.53;;;;;;;;;;4939379;29;20422;-84
2021/06/19 20:02:25;;;;;;;18.30;8.50;;;;;;;;;;4941412;29;20234;-84
2021/06/19 20:04:51;;;;;;;11.50;8.30;;;21.70;96.30;;;;;;4940828;29;21015;-84
2021/06/19 20:07:17;;;;;;;13.97;8.70;;;21.90;96.30;;;;;;4939183;29;20183;-84
2021/06/19 20:09:45;;;;;;;9.10;8.27;;;22.00;96.30;;;;;;4940180;29;20517;-84
2021/06/19 20:12:11;;;;;;;9.40;8.50;;;22.20;96.30;;;;;;4941321;29;20411;-84
2021/06/19 20:14:37;;;;;;;14.03;10.60;;;22.30;96.30;;;;;;4940465;29;20423;-84
2021/06/19 20:17:03;;;;;;;11.77;9.33;;;22.30;96.30;;;;;;4938076;29;20939;-84